Archival Weather

Chicago O'Hare International

Chicago, Illinois (KORD)

Report from: Monday, December 12, 2022 6:51 PM CST
Current time: Friday, June 21, 2024 1:44 AM CDT

Current weather – Weather history – Daily summaries
Weather forecast

Temperature3.9°C (39.0°F)
Wind chill0.8°C (33.4°F)
Dew point-2.2°C (28.0°F)
Winds 7 kts (3.6 m/s, 8.1 mph) Southeast (140°)
Visibility10 mi. (16.1 km)
Clouds Ceiling: Overcast 2,800 ft. (853 m)
Altimeter30.29 in.Hg (1026 mB)
Relative humidity64 %
Density altitude-1,706 ft. (-520 m)
Sea-level pressure102.6 kPa (1026 mB, 30.31 in.Hg)
Remarks Automated weather observing station with precipitation discriminator
Flight conditions Marginal Visual Meteorological Conditions
Raw dataKORD 130051Z 14007KT 10SM OVC028 04/M02 A3029 RMK AO2 SLP263 T00391022
An error has occurred. This application may no longer respond until reloaded. Reload 🗙